createdAt,value
2023-01-11T00:00:49.718Z,26.82
2023-01-11T00:03:18.058Z,26.82
2023-01-11T00:05:46.280Z,26.79
2023-01-11T00:08:15.742Z,26.81
2023-01-11T00:10:43.721Z,26.78
2023-01-11T00:13:11.677Z,26.68
2023-01-11T00:15:40.647Z,26.76
2023-01-11T00:18:08.621Z,26.77
2023-01-11T00:20:36.955Z,26.76
2023-01-11T00:23:04.933Z,26.73
2023-01-11T00:25:34.390Z,26.74
2023-01-11T00:28:02.418Z,26.74
2023-01-11T00:30:30.429Z,26.73
2023-01-11T00:32:58.667Z,26.72
2023-01-11T00:35:27.605Z,26.72
2023-01-11T00:37:55.710Z,26.69
2023-01-11T00:40:26.385Z,26.69
2023-01-11T00:43:13.463Z,26.70
2023-01-11T00:46:13.846Z,26.67
2023-01-11T00:48:41.957Z,26.67
2023-01-11T00:51:09.872Z,26.67
2023-01-11T00:53:37.748Z,26.67
2023-01-11T00:56:06.133Z,26.68
2023-01-11T00:58:35.425Z,26.69
2023-01-11T01:01:07.840Z,26.70
2023-01-11T01:03:35.995Z,26.66
2023-01-11T01:06:03.933Z,26.64
2023-01-11T01:08:31.845Z,26.68
2023-01-11T01:10:59.918Z,26.66
2023-01-11T01:13:45.440Z,26.66
2023-01-11T01:16:14.862Z,26.64
2023-01-11T01:18:42.928Z,26.61
2023-01-11T01:21:10.968Z,26.61
2023-01-11T01:23:38.911Z,26.48
2023-01-11T01:26:07.829Z,26.59
2023-01-11T01:28:35.881Z,26.59
2023-01-11T01:31:04.050Z,26.61
2023-01-11T01:33:33.439Z,26.59
2023-01-11T01:36:02.310Z,26.59
2023-01-11T01:38:31.098Z,26.60
2023-01-11T01:40:59.043Z,26.59
2023-01-11T01:43:47.739Z,26.60
2023-01-11T01:46:16.100Z,26.59
2023-01-11T01:48:47.830Z,26.60
2023-01-11T01:51:20.171Z,26.58
2023-01-11T01:53:51.203Z,26.58
2023-01-11T01:56:24.128Z,26.56
2023-01-11T01:58:57.209Z,26.56
2023-01-11T02:01:42.815Z,26.54
2023-01-11T02:04:15.542Z,26.52
2023-01-11T02:06:44.156Z,26.53
2023-01-11T02:09:20.188Z,26.54
2023-01-11T02:11:48.311Z,26.50
2023-01-11T02:14:20.197Z,26.49
2023-01-11T02:16:48.143Z,26.45
2023-01-11T02:19:27.977Z,26.48
2023-01-11T02:22:15.564Z,26.46
2023-01-11T02:25:11.158Z,26.43
2023-01-11T02:28:07.638Z,26.43
2023-01-11T02:30:42.961Z,26.42
2023-01-11T02:33:23.509Z,26.40
2023-01-11T02:36:02.031Z,26.38
2023-01-11T02:38:34.989Z,26.37
2023-01-11T02:41:10.105Z,26.39
2023-01-11T02:44:05.113Z,26.42
2023-01-11T02:46:40.729Z,26.41
2023-01-11T02:49:14.746Z,26.36
2023-01-11T02:51:48.481Z,26.34
2023-01-11T02:54:20.647Z,26.35
2023-01-11T02:56:52.695Z,26.38
2023-01-11T02:59:24.882Z,26.38
2023-01-11T03:01:55.717Z,26.38
2023-01-11T03:04:25.422Z,26.37
2023-01-11T03:07:03.634Z,26.38
2023-01-11T03:09:39.698Z,26.38
2023-01-11T03:12:42.347Z,26.36
2023-01-11T03:15:26.550Z,26.30
2023-01-11T03:18:05.120Z,26.28
2023-01-11T03:20:36.596Z,26.27
2023-01-11T03:23:13.644Z,26.29
2023-01-11T03:25:51.119Z,26.29
2023-01-11T03:28:26.785Z,26.28
2023-01-11T03:31:03.465Z,26.27
2023-01-11T03:33:38.844Z,26.26
2023-01-11T03:36:16.307Z,26.29
2023-01-11T03:38:50.241Z,26.28
2023-01-11T03:41:23.627Z,26.26
2023-01-11T03:43:54.615Z,26.25
2023-01-11T03:46:28.805Z,26.24
2023-01-11T03:49:03.696Z,26.23
2023-01-11T03:51:35.807Z,26.21
2023-01-11T03:54:08.263Z,26.24
2023-01-11T03:56:42.294Z,26.25
2023-01-11T03:59:10.405Z,26.22
2023-01-11T04:01:40.573Z,26.22
2023-01-11T04:04:08.624Z,26.21
2023-01-11T04:06:38.541Z,26.19
2023-01-11T04:09:06.767Z,26.16
2023-01-11T04:11:34.736Z,26.16
2023-01-11T04:14:02.924Z,26.14
2023-01-11T04:16:30.886Z,26.12
2023-01-11T04:19:00.270Z,26.12
2023-01-11T04:21:28.270Z,26.11
2023-01-11T04:23:56.227Z,26.11
2023-01-11T04:26:24.163Z,26.13
2023-01-11T04:28:54.210Z,26.15
2023-01-11T04:31:22.435Z,26.13
2023-01-11T04:33:50.471Z,26.09
2023-01-11T04:36:19.850Z,26.12
2023-01-11T04:38:47.874Z,26.12
2023-01-11T04:41:33.030Z,26.13
2023-01-11T04:44:01.094Z,26.14
2023-01-11T04:46:29.115Z,26.16
2023-01-11T04:48:57.384Z,26.12
2023-01-11T04:51:26.644Z,26.13
2023-01-11T04:53:54.855Z,26.14
2023-01-11T04:56:22.824Z,26.12
2023-01-11T04:58:50.800Z,26.11
2023-01-11T05:01:20.086Z,26.12
2023-01-11T05:03:48.546Z,26.12
2023-01-11T05:06:16.820Z,26.09
2023-01-11T05:08:48.429Z,26.13
2023-01-11T05:11:17.703Z,26.13
2023-01-11T05:13:45.770Z,26.12
2023-01-11T05:16:17.651Z,26.14
2023-01-11T05:18:47.281Z,26.14
2023-01-11T05:21:17.052Z,26.14
2023-01-11T05:23:45.309Z,26.15
2023-01-11T05:26:17.637Z,26.18
2023-01-11T05:28:46.212Z,26.17
2023-01-11T05:31:14.853Z,26.18
2023-01-11T05:33:43.127Z,26.05
2023-01-11T05:36:14.410Z,25.83
2023-01-11T05:38:42.778Z,26.14
2023-01-11T05:41:11.799Z,26.14
2023-01-11T05:43:54.973Z,26.14
2023-01-11T05:46:23.479Z,26.13
2023-01-11T05:48:51.763Z,26.11
2023-01-11T05:51:19.691Z,26.11
2023-01-11T05:53:47.713Z,26.12
2023-01-11T05:56:15.809Z,26.13
2023-01-11T05:58:48.255Z,26.13
2023-01-11T06:01:16.728Z,26.11
2023-01-11T06:03:45.346Z,26.10
2023-01-11T06:06:13.932Z,26.10
2023-01-11T06:08:41.949Z,26.07
2023-01-11T06:11:09.991Z,26.09
2023-01-11T06:13:37.948Z,26.09
2023-01-11T06:16:10.528Z,26.10
2023-01-11T06:18:40.447Z,26.10
2023-01-11T06:21:09.536Z,26.05
2023-01-11T06:23:38.821Z,26.13
2023-01-11T06:26:09.067Z,26.09
2023-01-11T06:28:37.683Z,26.10
2023-01-11T06:31:08.239Z,26.13
2023-01-11T06:33:37.458Z,26.16
2023-01-11T06:36:07.398Z,26.16
2023-01-11T06:38:36.039Z,26.06
2023-01-11T06:41:05.453Z,26.18
2023-01-11T06:43:33.703Z,26.19
2023-01-11T06:46:01.682Z,26.18
2023-01-11T06:48:31.173Z,26.20
2023-01-11T06:51:00.212Z,26.20
2023-01-11T06:53:29.499Z,26.22
2023-01-11T06:55:59.172Z,26.24
2023-01-11T06:58:27.787Z,26.22
2023-01-11T07:00:57.961Z,26.22
2023-01-11T07:03:27.451Z,26.21
2023-01-11T07:05:58.251Z,26.21
2023-01-11T07:08:27.083Z,26.20
2023-01-11T07:10:55.728Z,26.08
2023-01-11T07:13:24.405Z,26.21
2023-01-11T07:15:54.309Z,26.20
2023-01-11T07:18:22.518Z,26.20
2023-01-11T07:20:51.977Z,26.19
2023-01-11T07:23:21.354Z,26.19
2023-01-11T07:25:49.663Z,26.18
2023-01-11T07:28:17.725Z,26.17
2023-01-11T07:30:57.271Z,26.15
2023-01-11T07:33:26.554Z,26.14
2023-01-11T07:35:54.893Z,26.02
2023-01-11T07:38:24.383Z,26.17
2023-01-11T07:40:52.565Z,26.15
2023-01-11T07:43:23.086Z,26.19
2023-01-11T07:45:53.264Z,26.07
2023-01-11T07:48:25.270Z,26.15
2023-01-11T07:50:54.223Z,26.14
2023-01-11T07:53:25.443Z,26.13
2023-01-11T07:55:56.221Z,26.17
2023-01-11T07:58:24.792Z,26.14
2023-01-11T08:00:52.697Z,26.16
2023-01-11T08:03:21.030Z,26.14
2023-01-11T08:05:51.557Z,26.15
2023-01-11T08:08:19.580Z,26.09
2023-01-11T08:10:47.591Z,26.10
2023-01-11T08:13:35.249Z,26.17
2023-01-11T08:16:03.298Z,26.18
2023-01-11T08:18:31.270Z,26.20
2023-01-11T08:20:59.335Z,26.19
2023-01-11T08:23:27.611Z,26.21
2023-01-11T08:25:58.547Z,26.21
2023-01-11T08:28:28.168Z,26.19
2023-01-11T08:30:56.201Z,26.12
2023-01-11T08:33:24.909Z,26.04
2023-01-11T08:35:52.871Z,25.96
2023-01-11T08:38:20.745Z,25.90
2023-01-11T08:40:48.753Z,25.86
2023-01-11T08:43:16.646Z,25.84
2023-01-11T08:45:46.048Z,25.87
2023-01-11T08:48:15.995Z,25.86
2023-01-11T08:50:44.959Z,25.84
2023-01-11T08:53:13.875Z,25.88
2023-01-11T08:55:44.516Z,25.92
2023-01-11T08:58:12.464Z,25.98
2023-01-11T09:00:40.719Z,25.99
2023-01-11T09:03:11.912Z,26.01
2023-01-11T09:05:40.878Z,26.02
2023-01-11T09:08:10.211Z,26.03
2023-01-11T09:10:38.503Z,26.04
2023-01-11T09:13:06.503Z,26.01
2023-01-11T09:15:34.636Z,26.02
2023-01-11T09:18:03.168Z,26.03
2023-01-11T09:20:32.861Z,26.05
2023-01-11T09:23:00.760Z,26.06
2023-01-11T09:25:28.649Z,26.06
2023-01-11T09:27:56.683Z,26.03
2023-01-11T09:30:25.195Z,26.00
2023-01-11T09:32:54.512Z,25.97
2023-01-11T09:35:22.715Z,25.89
2023-01-11T09:37:54.485Z,25.71
2023-01-11T09:40:24.922Z,25.78
2023-01-11T09:42:57.495Z,25.72
2023-01-11T09:45:28.372Z,25.71
2023-01-11T09:48:04.871Z,25.69
2023-01-11T09:50:39.907Z,25.66
2023-01-11T09:53:19.412Z,25.65
2023-01-11T09:55:52.192Z,25.65
2023-01-11T09:58:37.925Z,25.67
2023-01-11T10:01:12.406Z,25.63
2023-01-11T10:04:26.074Z,25.68
2023-01-11T10:07:13.021Z,25.66
2023-01-11T10:18:33.921Z,25.63
2023-01-11T10:19:12.263Z,25.63
2023-01-11T10:21:44.104Z,25.60
2023-01-11T10:24:21.676Z,25.57
2023-01-11T10:26:54.243Z,25.56
2023-01-11T10:29:46.136Z,25.55
2023-01-11T10:32:39.208Z,25.58
2023-01-11T10:35:29.270Z,25.60
2023-01-11T10:38:22.980Z,25.63
2023-01-11T10:41:04.707Z,25.67
2023-01-11T10:43:38.578Z,25.69
2023-01-11T10:46:11.180Z,25.72
2023-01-11T10:48:40.663Z,25.77
2023-01-11T10:51:23.282Z,25.66
2023-01-11T10:53:59.854Z,25.82
2023-01-11T10:56:42.541Z,25.90
2023-01-11T10:59:29.454Z,25.96
2023-01-11T11:02:08.307Z,25.96
2023-01-11T11:04:59.405Z,26.05
2023-01-11T11:07:34.451Z,26.08
2023-01-11T11:10:08.210Z,26.14
2023-01-11T11:12:39.293Z,26.20
2023-01-11T11:15:18.826Z,26.24
2023-01-11T11:17:50.865Z,26.22
2023-01-11T11:20:21.296Z,26.24
2023-01-11T11:22:51.948Z,26.28
2023-01-11T11:25:23.078Z,26.31
2023-01-11T11:27:53.814Z,26.34
2023-01-11T11:30:32.756Z,26.39
2023-01-11T11:33:03.366Z,26.40
2023-01-11T11:35:33.467Z,26.43
2023-01-11T11:38:01.567Z,26.45
2023-01-11T11:40:32.728Z,26.48
2023-01-11T11:43:21.510Z,26.49
2023-01-11T11:45:59.066Z,26.49
2023-01-11T11:48:28.451Z,26.48
2023-01-11T11:50:58.433Z,26.50
2023-01-11T11:53:51.183Z,26.52
2023-01-11T11:56:25.340Z,26.55
2023-01-11T11:58:54.861Z,26.56
2023-01-11T12:01:32.906Z,26.49
2023-01-11T12:04:03.987Z,26.56
2023-01-11T12:06:32.431Z,26.53
2023-01-11T12:09:03.662Z,26.55
2023-01-11T12:11:34.987Z,26.56
2023-01-11T12:14:16.503Z,26.61
2023-01-11T12:16:49.418Z,26.61
2023-01-11T12:19:28.628Z,26.65
2023-01-11T12:22:11.742Z,26.70
2023-01-11T12:24:39.713Z,26.74
2023-01-11T12:27:19.124Z,26.78
2023-01-11T12:30:08.516Z,26.81
2023-01-11T12:33:06.279Z,26.83
2023-01-11T12:35:41.413Z,26.83
2023-01-11T12:38:24.266Z,26.87
2023-01-11T12:41:08.553Z,26.89
2023-01-11T12:43:53.295Z,26.89
2023-01-11T12:46:30.854Z,26.90
2023-01-11T12:49:18.242Z,26.78
2023-01-11T12:52:03.161Z,26.95
2023-01-11T12:54:53.738Z,26.89
2023-01-11T12:57:28.258Z,26.84
2023-01-11T13:00:18.684Z,26.78
2023-01-11T13:03:09.397Z,26.72
2023-01-11T13:05:52.606Z,26.71
2023-01-11T13:08:27.691Z,26.67
2023-01-11T13:11:02.868Z,26.62
2023-01-11T13:13:37.577Z,26.63
2023-01-11T13:16:14.513Z,26.59
2023-01-11T13:18:47.337Z,26.58
2023-01-11T13:21:31.550Z,26.55
2023-01-11T13:24:04.700Z,26.50
2023-01-11T13:26:37.816Z,26.44
2023-01-11T13:29:13.826Z,26.38
2023-01-11T13:31:43.436Z,26.36
2023-01-11T13:34:17.109Z,26.37
2023-01-11T13:36:52.734Z,26.36
2023-01-11T13:39:28.468Z,26.35
2023-01-11T13:41:59.947Z,26.33
2023-01-11T13:44:32.191Z,26.39
2023-01-11T13:47:08.079Z,26.42
2023-01-11T13:49:45.401Z,26.38
2023-01-11T13:52:17.293Z,26.38
2023-01-11T13:54:54.698Z,26.39
2023-01-11T13:57:31.698Z,26.43
2023-01-11T14:00:07.676Z,26.48
2023-01-11T14:02:45.280Z,26.52
2023-01-11T14:05:18.269Z,26.55
2023-01-11T14:08:07.225Z,26.62
2023-01-11T14:10:45.927Z,26.68
2023-01-11T14:14:15.525Z,26.72
2023-01-11T14:16:58.623Z,26.63
2023-01-11T14:19:32.068Z,26.57
2023-01-11T14:22:12.078Z,26.52
2023-01-11T14:24:45.091Z,26.50
2023-01-11T14:27:46.353Z,26.48
2023-01-11T14:30:35.790Z,26.41
2023-01-11T14:33:20.070Z,26.43
2023-01-11T14:36:16.009Z,26.39
2023-01-11T14:39:21.118Z,26.35
2023-01-11T14:42:16.252Z,26.33
2023-01-11T14:45:13.389Z,26.30
2023-01-11T14:47:55.855Z,26.32
2023-01-11T14:50:34.930Z,26.27
2023-01-11T14:53:04.515Z,26.28
2023-01-11T14:55:37.461Z,26.26
2023-01-11T14:58:18.966Z,26.22
2023-01-11T15:01:13.543Z,26.19
2023-01-11T15:03:56.211Z,26.27
2023-01-11T15:06:24.738Z,26.31
2023-01-11T15:08:55.932Z,26.32
2023-01-11T15:11:36.002Z,26.26
2023-01-11T15:14:24.777Z,26.14
2023-01-11T15:17:17.405Z,26.26
2023-01-11T15:19:45.835Z,26.26
2023-01-11T15:22:26.131Z,26.27
2023-01-11T15:25:00.937Z,26.31
2023-01-11T15:27:34.276Z,26.23
2023-01-11T15:30:06.195Z,26.35
2023-01-11T15:32:35.811Z,26.31
2023-01-11T15:35:18.931Z,26.24
2023-01-11T15:37:57.237Z,26.17
2023-01-11T15:40:27.570Z,26.14
2023-01-11T15:43:41.308Z,26.18
2023-01-11T15:46:55.730Z,26.14
2023-01-11T15:50:02.975Z,26.16
2023-01-11T15:53:14.855Z,26.34
2023-01-11T15:56:20.881Z,26.50
2023-01-11T15:59:29.443Z,26.62
2023-01-11T16:02:34.874Z,26.71
2023-01-11T16:05:15.764Z,26.79
2023-01-11T16:07:47.808Z,26.85
2023-01-11T16:10:37.529Z,26.90
2023-01-11T16:13:28.123Z,26.94
2023-01-11T16:16:17.286Z,26.98
2023-01-11T16:18:50.827Z,27.00
2023-01-11T16:21:28.284Z,27.03
2023-01-11T16:23:56.808Z,27.03
2023-01-11T16:26:25.105Z,27.05
2023-01-11T16:28:56.045Z,27.06
2023-01-11T16:31:25.259Z,27.06
2023-01-11T16:33:54.865Z,27.06
2023-01-11T16:36:24.582Z,27.06
2023-01-11T16:39:01.782Z,27.05
2023-01-11T16:41:37.570Z,27.04
2023-01-11T16:44:08.996Z,27.05
2023-01-11T16:47:11.208Z,27.06
2023-01-11T16:49:41.177Z,27.04
2023-01-11T16:52:34.758Z,27.07
2023-01-11T16:55:12.144Z,27.09
2023-01-11T16:57:43.635Z,27.10
2023-01-11T17:00:22.289Z,27.11
2023-01-11T17:03:00.753Z,27.10
2023-01-11T17:05:30.190Z,27.10
2023-01-11T17:07:58.234Z,27.09
2023-01-11T17:10:28.584Z,27.09
2023-01-11T17:13:33.275Z,27.15
2023-01-11T17:16:09.954Z,27.12
2023-01-11T17:18:40.845Z,27.15
2023-01-11T17:21:19.077Z,27.16
2023-01-11T17:23:48.576Z,27.13
2023-01-11T17:26:21.051Z,27.13
2023-01-11T17:28:51.159Z,26.97
2023-01-11T17:31:24.046Z,27.08
2023-01-11T17:34:02.718Z,27.05
2023-01-11T17:36:33.651Z,26.99
2023-01-11T17:39:02.248Z,27.00
2023-01-11T17:41:48.130Z,27.01
2023-01-11T17:44:36.841Z,27.00
2023-01-11T17:47:08.487Z,27.00
2023-01-11T17:49:38.452Z,27.00
2023-01-11T17:52:13.026Z,27.02
2023-01-11T17:54:41.103Z,26.98
2023-01-11T17:57:11.163Z,27.02
2023-01-11T17:59:39.151Z,26.99
2023-01-11T18:02:13.526Z,27.00
2023-01-11T18:04:41.832Z,26.98
2023-01-11T18:07:17.820Z,27.00
2023-01-11T18:09:49.310Z,26.95
2023-01-11T18:12:21.524Z,26.97
2023-01-11T18:14:53.372Z,26.97
2023-01-11T18:17:35.043Z,26.99
2023-01-11T18:20:24.721Z,26.98
2023-01-11T18:23:04.489Z,26.98
2023-01-11T18:25:35.166Z,26.96
2023-01-11T18:28:31.053Z,26.89
2023-01-11T18:31:02.137Z,26.84
2023-01-11T18:33:33.588Z,26.88
2023-01-11T18:36:03.337Z,26.87
2023-01-11T18:38:34.422Z,26.90
2023-01-11T18:41:20.873Z,26.92
2023-01-11T18:43:48.894Z,26.89
2023-01-11T18:46:16.962Z,26.90
2023-01-11T18:48:45.011Z,26.91
2023-01-11T18:51:17.729Z,26.96
2023-01-11T18:53:47.083Z,26.95
2023-01-11T18:56:16.400Z,26.93
2023-01-11T18:58:44.512Z,26.89
2023-01-11T19:01:12.868Z,26.91
2023-01-11T19:03:42.047Z,26.94
2023-01-11T19:06:13.542Z,26.98
2023-01-11T19:08:41.591Z,26.99
2023-01-11T19:11:10.849Z,26.95
2023-01-11T19:13:38.883Z,26.89
2023-01-11T19:16:08.261Z,26.87
2023-01-11T19:18:36.239Z,26.83
2023-01-11T19:21:06.495Z,26.80
2023-01-11T19:23:35.222Z,26.78
2023-01-11T19:26:03.251Z,26.75
2023-01-11T19:28:32.675Z,26.71
2023-01-11T19:31:01.000Z,26.70
2023-01-11T19:33:29.039Z,26.72
2023-01-11T19:35:57.158Z,26.74
2023-01-11T19:38:25.131Z,26.72
2023-01-11T19:40:53.212Z,26.67
2023-01-11T19:43:21.140Z,26.61
2023-01-11T19:45:57.313Z,26.57
2023-01-11T19:48:25.620Z,26.38
2023-01-11T19:51:02.167Z,26.46
2023-01-11T19:53:30.924Z,26.43
2023-01-11T19:56:01.571Z,26.43
2023-01-11T19:58:29.725Z,26.45
2023-01-11T20:00:59.104Z,26.47
2023-01-11T20:03:27.458Z,26.49
2023-01-11T20:06:04.657Z,26.56
2023-01-11T20:08:36.197Z,26.61
2023-01-11T20:11:08.307Z,26.65
2023-01-11T20:13:36.644Z,26.70
2023-01-11T20:16:11.125Z,26.72
2023-01-11T20:18:39.174Z,26.72
2023-01-11T20:21:07.176Z,26.68
2023-01-11T20:23:35.482Z,26.63
2023-01-11T20:26:04.862Z,26.56
2023-01-11T20:28:33.242Z,26.47
2023-01-11T20:31:02.331Z,26.42
2023-01-11T20:33:32.075Z,26.38
2023-01-11T20:36:00.037Z,26.31
2023-01-11T20:38:29.081Z,26.28
2023-01-11T20:40:57.722Z,26.21
2023-01-11T20:43:25.729Z,26.20
2023-01-11T20:45:57.389Z,26.24
2023-01-11T20:48:25.437Z,26.21
2023-01-11T20:50:54.839Z,26.19
2023-01-11T20:53:22.851Z,26.19
2023-01-11T20:55:50.793Z,26.18
2023-01-11T20:58:18.783Z,26.15
2023-01-11T21:00:46.739Z,26.14
2023-01-11T21:03:14.724Z,26.08
2023-01-11T21:05:42.639Z,26.09
2023-01-11T21:08:11.929Z,26.07
2023-01-11T21:10:39.868Z,26.02
2023-01-11T21:15:38.089Z,25.86
2023-01-11T21:18:07.245Z,25.78
2023-01-11T21:20:35.486Z,25.68
2023-01-11T21:23:03.541Z,25.60
2023-01-11T21:25:34.501Z,25.60
2023-01-11T21:28:03.177Z,25.62
2023-01-11T21:30:31.109Z,25.62
2023-01-11T21:32:59.168Z,25.69
2023-01-11T21:35:28.066Z,25.74
2023-01-11T21:37:56.092Z,25.76
2023-01-11T21:40:24.075Z,25.77
2023-01-11T21:42:53.522Z,25.83
2023-01-11T21:45:21.497Z,25.82
2023-01-11T21:47:49.428Z,25.86
2023-01-11T21:50:18.227Z,25.88
2023-01-11T21:52:46.113Z,25.88
2023-01-11T21:55:14.141Z,25.88
2023-01-11T21:57:42.102Z,25.89
2023-01-11T22:00:14.575Z,25.91
2023-01-11T22:02:42.598Z,25.89
2023-01-11T22:05:11.177Z,25.94
2023-01-11T22:07:41.279Z,25.93
2023-01-11T22:10:10.613Z,25.88
2023-01-11T22:12:38.577Z,25.87
2023-01-11T22:15:07.493Z,25.87
2023-01-11T22:17:36.847Z,25.91
2023-01-11T22:20:05.341Z,25.92
2023-01-11T22:22:33.479Z,25.88
2023-01-11T22:25:01.445Z,25.84
2023-01-11T22:27:29.499Z,25.76
2023-01-11T22:29:57.360Z,25.68
2023-01-11T22:32:25.815Z,25.61
2023-01-11T22:34:55.135Z,25.54
2023-01-11T22:37:23.137Z,25.53
2023-01-11T22:39:51.151Z,25.51
2023-01-11T22:42:19.464Z,25.47
2023-01-11T22:44:47.514Z,25.42
2023-01-11T22:47:15.412Z,25.38
2023-01-11T22:49:43.509Z,25.35
2023-01-11T22:52:12.815Z,25.33
2023-01-11T22:54:40.677Z,25.29
2023-01-11T22:57:08.653Z,25.27
2023-01-11T22:59:36.590Z,25.26
2023-01-11T23:02:04.639Z,25.41
2023-01-11T23:04:33.259Z,25.36
2023-01-11T23:07:01.192Z,25.35
2023-01-11T23:09:30.529Z,25.35
2023-01-11T23:12:16.046Z,25.18
2023-01-11T23:14:44.036Z,25.28
2023-01-11T23:17:11.943Z,25.24
2023-01-11T23:19:41.717Z,25.26
2023-01-11T23:22:11.126Z,25.35
2023-01-11T23:24:41.116Z,25.43
2023-01-11T23:27:09.153Z,25.47
2023-01-11T23:29:37.183Z,25.48
2023-01-11T23:32:05.412Z,25.49
2023-01-11T23:34:33.418Z,25.49
2023-01-11T23:37:01.417Z,25.52
2023-01-11T23:39:29.321Z,25.53
2023-01-11T23:42:16.300Z,25.57
2023-01-11T23:44:44.358Z,25.57
2023-01-11T23:47:29.729Z,25.57
2023-01-11T23:50:00.358Z,25.55
2023-01-11T23:52:30.268Z,25.54
2023-01-11T23:54:58.507Z,25.57
2023-01-11T23:57:27.989Z,25.63
2023-01-11T23:59:56.053Z,25.61
